createdAt,value
2024-03-25T00:01:12.818Z,1.92
2024-03-25T00:02:36.768Z,4.82
2024-03-25T00:03:59.367Z,2.50
2024-03-25T00:05:25.984Z,8.55
2024-03-25T00:06:47.206Z,9.37
2024-03-25T00:08:11.236Z,24.93
2024-03-25T00:09:36.885Z,16.00
2024-03-25T00:11:02.539Z,14.95
2024-03-25T00:12:23.104Z,13.72
2024-03-25T00:13:45.315Z,5.53
2024-03-25T00:15:10.995Z,3.62
2024-03-25T00:16:31.970Z,6.13
2024-03-25T00:17:56.447Z,2.83
2024-03-25T00:19:24.863Z,2.40
2024-03-25T00:20:45.695Z,12.43
2024-03-25T00:22:06.710Z,16.42
2024-03-25T00:23:37.012Z,42.50
2024-03-25T00:24:56.841Z,26.95
2024-03-25T00:26:27.182Z,41.10
2024-03-25T00:28:33.825Z,38.70
2024-03-25T00:29:39.370Z,54.42
2024-03-25T00:31:43.308Z,85.48
2024-03-25T00:33:22.333Z,13.78
2024-03-25T00:34:43.211Z,6.12
2024-03-25T00:36:29.583Z,4.92
2024-03-25T00:37:55.572Z,2.63
2024-03-25T00:39:17.224Z,2.37
2024-03-25T00:40:50.719Z,2.52
2024-03-25T00:42:22.798Z,2.98
2024-03-25T00:43:44.100Z,2.58
2024-03-25T00:45:10.526Z,2.78
2024-03-25T00:46:32.874Z,2.65
2024-03-25T00:47:55.857Z,4.03
2024-03-25T00:49:17.879Z,3.82
2024-03-25T00:50:38.473Z,4.35
2024-03-25T00:51:59.360Z,3.73
2024-03-25T00:53:20.668Z,3.93
2024-03-25T00:54:41.565Z,3.73
2024-03-25T00:56:02.103Z,3.92
2024-03-25T00:57:26.249Z,5.23
2024-03-25T00:58:46.820Z,4.48
2024-03-25T01:00:08.181Z,5.10
2024-03-25T01:01:38.839Z,4.40
2024-03-25T01:02:59.645Z,5.03
2024-03-25T01:04:26.696Z,5.97
2024-03-25T01:05:47.654Z,5.75
2024-03-25T01:07:30.343Z,6.57
2024-03-25T01:08:56.138Z,5.33
2024-03-25T01:10:18.699Z,4.85
2024-03-25T01:11:42.514Z,4.45
2024-03-25T01:13:02.813Z,4.87
2024-03-25T01:14:23.591Z,3.95
2024-03-25T01:15:43.875Z,10.20
2024-03-25T01:17:04.360Z,4.92
2024-03-25T01:18:25.476Z,4.72
2024-03-25T01:19:46.384Z,4.88
2024-03-25T01:21:07.769Z,16.57
2024-03-25T01:22:29.071Z,15.12
2024-03-25T01:23:49.668Z,5.87
2024-03-25T01:25:11.696Z,8.90
2024-03-25T01:26:32.494Z,7.73
2024-03-25T01:27:52.790Z,20.32
2024-03-25T01:29:14.487Z,6.95
2024-03-25T01:30:39.280Z,13.65
2024-03-25T01:32:00.379Z,13.85
2024-03-25T01:33:21.790Z,33.70
2024-03-25T01:34:44.117Z,31.05
2024-03-25T01:36:06.008Z,23.77
2024-03-25T01:37:27.456Z,42.32
2024-03-25T01:38:49.020Z,74.70
2024-03-25T01:40:12.490Z,67.68
2024-03-25T01:41:32.699Z,77.42
2024-03-25T01:42:56.878Z,59.55
2024-03-25T01:44:18.118Z,50.37
2024-03-25T01:45:39.284Z,26.38
2024-03-25T01:47:04.885Z,32.17
2024-03-25T01:48:25.579Z,28.18
2024-03-25T01:49:47.242Z,51.65
2024-03-25T01:51:08.368Z,42.22
2024-03-25T01:52:29.145Z,47.03
2024-03-25T01:53:50.297Z,38.37
2024-03-25T01:55:20.308Z,33.20
2024-03-25T01:56:42.211Z,83.70
2024-03-25T01:58:03.709Z,41.28
2024-03-25T01:59:24.926Z,58.58
2024-03-25T02:00:45.990Z,24.92
2024-03-25T02:02:07.510Z,15.42
2024-03-25T02:03:39.622Z,43.25
2024-03-25T02:05:01.034Z,69.13
2024-03-25T02:06:22.753Z,50.02
2024-03-25T02:08:21.427Z,34.93
2024-03-25T02:09:40.072Z,27.95
2024-03-25T02:11:03.619Z,24.27
2024-03-25T02:12:30.452Z,27.03
2024-03-25T02:13:52.072Z,22.47
2024-03-25T02:15:13.562Z,14.98
2024-03-25T02:16:34.646Z,17.47
2024-03-25T02:17:55.254Z,14.80
2024-03-25T02:19:16.235Z,10.25
2024-03-25T02:20:40.930Z,16.70
2024-03-25T02:22:07.147Z,30.68
2024-03-25T02:23:27.339Z,26.60
2024-03-25T02:27:16.980Z,16.03
2024-03-25T02:28:37.731Z,17.72
2024-03-25T02:30:03.205Z,21.52
2024-03-25T02:31:23.986Z,25.10
2024-03-25T02:32:45.588Z,18.83
2024-03-25T02:34:17.578Z,28.43
2024-03-25T02:35:39.610Z,13.93
2024-03-25T02:37:08.996Z,37.40
2024-03-25T02:38:33.091Z,12.25
2024-03-25T02:40:01.108Z,5.88
2024-03-25T02:41:27.758Z,5.47
2024-03-25T02:42:52.508Z,8.42
2024-03-25T02:44:17.094Z,5.47
2024-03-25T02:45:38.239Z,4.70
2024-03-25T02:46:58.320Z,5.50
2024-03-25T02:48:22.038Z,9.20
2024-03-25T02:49:51.993Z,7.48
2024-03-25T02:51:12.371Z,5.55
2024-03-25T02:52:38.447Z,11.53
2024-03-25T02:53:58.481Z,11.03
2024-03-25T02:55:19.500Z,10.60
2024-03-25T02:56:41.880Z,8.43
2024-03-25T02:58:01.883Z,7.93
2024-03-25T02:59:25.805Z,8.70
2024-03-25T03:00:45.874Z,13.70
2024-03-25T03:02:06.826Z,11.65
2024-03-25T03:03:42.625Z,16.87
2024-03-25T03:05:14.175Z,20.78
2024-03-25T03:06:37.853Z,23.72
2024-03-25T03:07:59.169Z,19.13
2024-03-25T03:09:25.442Z,29.78
2024-03-25T03:10:47.177Z,31.97
2024-03-25T03:12:08.702Z,28.95
2024-03-25T03:13:29.289Z,15.50
2024-03-25T03:14:52.845Z,26.63
2024-03-25T03:16:16.480Z,23.65
2024-03-25T03:17:40.974Z,22.63
2024-03-25T03:19:02.062Z,29.88
2024-03-25T03:20:22.957Z,28.23
2024-03-25T03:21:44.500Z,22.03
2024-03-25T03:23:05.914Z,32.08
2024-03-25T03:24:27.207Z,35.28
2024-03-25T03:25:47.270Z,23.82
2024-03-25T03:27:08.907Z,24.18
2024-03-25T03:28:30.035Z,27.02
2024-03-25T03:29:51.934Z,31.68
2024-03-25T03:31:20.995Z,35.38
2024-03-25T03:32:47.652Z,23.50
2024-03-25T03:34:09.574Z,39.47
2024-03-25T03:35:36.009Z,28.42
2024-03-25T03:36:56.797Z,14.07
2024-03-25T03:38:16.860Z,24.03
2024-03-25T03:39:37.328Z,19.35
2024-03-25T03:41:01.891Z,13.35
2024-03-25T03:42:25.064Z,8.65
2024-03-25T03:43:46.200Z,8.40
2024-03-25T03:45:10.882Z,7.25
2024-03-25T03:46:31.985Z,7.57
2024-03-25T03:47:53.161Z,8.90
2024-03-25T03:49:14.502Z,8.70
2024-03-25T03:50:37.819Z,7.28
2024-03-25T03:52:09.509Z,16.88
2024-03-25T03:53:33.267Z,11.98
2024-03-25T03:54:55.070Z,35.93
2024-03-25T03:56:17.294Z,24.77
2024-03-25T03:57:39.339Z,9.33
2024-03-25T03:59:00.138Z,8.18
2024-03-25T04:00:23.476Z,9.98
2024-03-25T04:01:45.047Z,12.63
2024-03-25T04:03:04.841Z,15.03
2024-03-25T04:04:25.229Z,13.62
2024-03-25T04:05:48.258Z,12.90
2024-03-25T04:07:08.635Z,25.72
2024-03-25T04:08:31.419Z,58.35
2024-03-25T04:09:59.929Z,14.33
2024-03-25T04:11:20.350Z,11.32
2024-03-25T04:12:40.447Z,10.73
2024-03-25T04:14:19.913Z,11.78
2024-03-25T04:17:49.244Z,12.07
2024-03-25T04:19:13.356Z,12.67
2024-03-25T04:20:41.232Z,13.05
2024-03-25T04:22:11.503Z,13.35
2024-03-25T04:23:39.145Z,13.55
2024-03-25T04:24:59.912Z,12.85
2024-03-25T04:26:19.622Z,15.22
2024-03-25T04:27:41.326Z,17.12
2024-03-25T04:29:01.850Z,18.90
2024-03-25T04:30:26.237Z,28.58
2024-03-25T04:31:50.108Z,32.90
2024-03-25T04:33:14.668Z,24.07
2024-03-25T04:36:52.085Z,18.63
2024-03-25T04:38:18.562Z,24.72
2024-03-25T04:39:39.267Z,26.00
2024-03-25T04:41:23.117Z,26.93
2024-03-25T04:42:46.731Z,25.95
2024-03-25T04:44:22.847Z,26.38
2024-03-25T04:45:49.381Z,23.70
2024-03-25T04:47:09.907Z,18.75
2024-03-25T04:48:31.316Z,19.20
2024-03-25T04:49:52.629Z,17.28
2024-03-25T04:51:14.313Z,15.27
2024-03-25T04:52:34.638Z,14.88
2024-03-25T04:53:55.656Z,14.45
2024-03-25T04:55:15.921Z,13.60
2024-03-25T04:56:36.833Z,12.03
2024-03-25T04:57:58.051Z,13.32
2024-03-25T04:59:19.123Z,12.53
2024-03-25T05:00:42.811Z,12.83
2024-03-25T05:02:04.152Z,12.38
2024-03-25T05:03:25.177Z,11.80
2024-03-25T05:04:46.066Z,11.95
2024-03-25T05:06:09.734Z,13.05
2024-03-25T05:07:31.234Z,12.95
2024-03-25T05:08:51.796Z,13.22
2024-03-25T05:10:15.657Z,13.70
2024-03-25T05:11:36.992Z,13.87
2024-03-25T05:13:38.364Z,12.97
2024-03-25T05:14:52.201Z,13.87
2024-03-25T05:16:28.482Z,18.27
2024-03-25T05:17:48.230Z,18.33
2024-03-25T05:19:11.300Z,17.72
2024-03-25T05:20:34.131Z,15.42
2024-03-25T05:21:54.875Z,15.20
2024-03-25T05:23:16.143Z,13.47
2024-03-25T05:25:15.327Z,14.93
2024-03-25T05:26:48.312Z,15.47
2024-03-25T05:28:14.111Z,16.10
2024-03-25T05:29:35.482Z,16.45
2024-03-25T05:31:02.644Z,16.43
2024-03-25T05:32:23.978Z,16.43
2024-03-25T05:34:16.580Z,16.57
2024-03-25T05:35:41.692Z,16.47
2024-03-25T05:37:12.422Z,14.02
2024-03-25T05:38:33.216Z,12.30
2024-03-25T05:39:53.412Z,10.77
2024-03-25T05:41:17.343Z,11.75
2024-03-25T05:42:38.965Z,11.90
2024-03-25T05:43:59.474Z,14.02
2024-03-25T05:45:22.417Z,13.02
2024-03-25T05:46:45.720Z,12.92
2024-03-25T05:48:08.856Z,11.68
2024-03-25T05:49:50.897Z,10.53
2024-03-25T05:52:27.985Z,12.33
2024-03-25T05:53:57.451Z,12.18
2024-03-25T05:55:47.632Z,11.82
2024-03-25T05:57:14.694Z,10.23
2024-03-25T05:59:20.933Z,10.85
2024-03-25T06:00:48.722Z,8.55
2024-03-25T06:05:05.248Z,6.77
2024-03-25T06:06:29.601Z,5.93
2024-03-25T06:09:04.441Z,5.88
2024-03-25T06:10:56.946Z,5.57
2024-03-25T06:12:26.056Z,5.52
2024-03-25T06:13:55.511Z,5.52
2024-03-25T06:15:33.357Z,6.02
2024-03-25T06:19:54.459Z,5.42
2024-03-25T06:22:14.952Z,5.25
2024-03-25T06:24:19.685Z,5.65
2024-03-25T06:25:43.056Z,6.17
2024-03-25T06:27:29.634Z,5.52
2024-03-25T06:29:37.718Z,5.68
2024-03-25T06:31:24.252Z,5.87
2024-03-25T06:36:03.455Z,6.43
2024-03-25T06:39:29.835Z,6.38
2024-03-25T06:41:40.569Z,6.28
2024-03-25T06:43:00.298Z,5.60
2024-03-25T06:44:23.715Z,5.82
2024-03-25T06:45:43.692Z,5.98
2024-03-25T06:47:09.941Z,6.12
2024-03-25T06:48:34.966Z,6.18
2024-03-25T06:50:37.076Z,5.82
2024-03-25T06:52:07.127Z,5.93
2024-03-25T06:54:03.277Z,5.35
2024-03-25T06:55:36.638Z,5.58
2024-03-25T06:56:59.035Z,5.88
2024-03-25T06:58:26.351Z,5.58
2024-03-25T07:00:02.506Z,5.63
2024-03-25T07:01:35.953Z,5.40
2024-03-25T07:04:44.631Z,5.92
2024-03-25T07:06:05.896Z,5.70
2024-03-25T07:07:41.287Z,5.35
2024-03-25T07:09:01.769Z,6.63
2024-03-25T07:10:29.191Z,6.43
2024-03-25T07:12:41.684Z,6.17
2024-03-25T07:14:02.555Z,6.00
2024-03-25T07:16:13.414Z,6.05
2024-03-25T07:17:47.160Z,5.47
2024-03-25T07:19:09.590Z,5.80
2024-03-25T07:20:54.153Z,5.98
2024-03-25T07:22:19.170Z,5.42
2024-03-25T07:23:44.070Z,6.12
2024-03-25T07:25:05.685Z,5.80
2024-03-25T07:26:27.494Z,5.55
2024-03-25T07:27:57.379Z,5.55
2024-03-25T07:29:26.888Z,5.50
2024-03-25T07:30:48.606Z,5.30
2024-03-25T07:32:09.942Z,5.45
2024-03-25T07:33:31.000Z,5.35
2024-03-25T07:34:52.183Z,5.28
2024-03-25T07:36:12.993Z,5.03
2024-03-25T07:37:34.453Z,5.25
2024-03-25T07:38:55.606Z,5.38
2024-03-25T07:42:37.429Z,5.12
2024-03-25T07:44:28.726Z,5.12
2024-03-25T07:45:45.298Z,5.10
2024-03-25T07:47:07.003Z,4.72
2024-03-25T07:48:28.423Z,4.48
2024-03-25T07:49:49.346Z,4.55
2024-03-25T07:51:10.839Z,4.80
2024-03-25T07:52:31.666Z,4.45
2024-03-25T07:53:52.724Z,4.35
2024-03-25T07:55:13.211Z,4.87
2024-03-25T07:56:37.272Z,4.52
2024-03-25T07:57:57.989Z,4.55
2024-03-25T07:59:19.552Z,4.72
2024-03-25T08:00:41.062Z,4.27
2024-03-25T08:02:01.066Z,4.20
2024-03-25T08:03:21.361Z,4.25
2024-03-25T08:04:42.215Z,4.68
2024-03-25T08:06:03.860Z,4.17
2024-03-25T08:07:24.886Z,4.30
2024-03-25T08:08:45.996Z,4.15
2024-03-25T08:10:05.821Z,4.58
2024-03-25T08:11:26.937Z,4.07
2024-03-25T08:12:48.811Z,3.98
2024-03-25T08:14:09.654Z,3.88
2024-03-25T08:15:30.346Z,3.83
2024-03-25T08:16:52.527Z,3.88
2024-03-25T08:18:15.520Z,3.77
2024-03-25T08:19:36.322Z,3.65
2024-03-25T08:20:57.137Z,3.70
2024-03-25T08:22:19.004Z,3.58
2024-03-25T08:23:38.881Z,4.17
2024-03-25T08:25:00.520Z,3.83
2024-03-25T08:26:21.004Z,4.05
2024-03-25T08:27:42.757Z,3.68
2024-03-25T08:29:04.286Z,3.73
2024-03-25T08:30:25.422Z,3.98
2024-03-25T08:31:48.596Z,3.78
2024-03-25T08:33:09.804Z,3.70
2024-03-25T08:34:31.087Z,3.78
2024-03-25T08:35:52.179Z,3.43
2024-03-25T08:37:13.452Z,3.73
2024-03-25T08:38:34.006Z,3.78
2024-03-25T08:39:54.987Z,3.40
2024-03-25T08:41:16.262Z,3.80
2024-03-25T08:42:36.539Z,10.85
2024-03-25T08:43:57.088Z,10.53
2024-03-25T08:45:18.638Z,5.40
2024-03-25T08:46:39.285Z,5.15
2024-03-25T08:48:01.108Z,4.28
2024-03-25T08:49:22.199Z,4.50
2024-03-25T08:50:44.394Z,3.83
2024-03-25T08:52:06.006Z,3.78
2024-03-25T08:53:27.320Z,4.17
2024-03-25T08:54:48.855Z,3.37
2024-03-25T08:56:10.050Z,4.07
2024-03-25T08:57:30.815Z,3.98
2024-03-25T08:58:54.970Z,5.93
2024-03-25T09:00:18.907Z,6.02
2024-03-25T09:01:40.830Z,7.95
2024-03-25T09:03:01.365Z,4.20
2024-03-25T09:04:27.921Z,3.97
2024-03-25T09:05:49.178Z,3.43
2024-03-25T09:07:11.007Z,4.38
2024-03-25T09:08:52.632Z,4.30
2024-03-25T09:10:32.127Z,5.13
2024-03-25T09:11:52.571Z,4.70
2024-03-25T09:13:15.515Z,4.25
2024-03-25T09:14:38.881Z,4.13
2024-03-25T09:15:59.288Z,4.00
2024-03-25T09:17:20.871Z,3.57
2024-03-25T09:18:42.603Z,3.93
2024-03-25T09:20:04.957Z,3.53
2024-03-25T09:21:27.719Z,3.60
2024-03-25T09:22:51.050Z,3.85
2024-03-25T09:24:12.344Z,2.93
2024-03-25T09:25:39.248Z,3.50
2024-03-25T09:27:04.183Z,3.20
2024-03-25T09:28:31.374Z,3.42
2024-03-25T09:29:57.392Z,3.00
2024-03-25T09:31:19.464Z,3.13
2024-03-25T09:32:40.542Z,2.82
2024-03-25T09:34:04.309Z,3.07
2024-03-25T09:35:24.940Z,2.53
2024-03-25T09:36:45.126Z,3.15
2024-03-25T09:38:10.293Z,2.87
2024-03-25T09:39:34.229Z,2.83
2024-03-25T09:40:54.928Z,2.62
2024-03-25T09:42:26.455Z,2.63
2024-03-25T09:43:53.731Z,2.73
2024-03-25T09:45:17.438Z,2.70
2024-03-25T09:46:37.167Z,2.82
2024-03-25T09:47:57.771Z,2.52
2024-03-25T09:49:18.965Z,2.63
2024-03-25T09:50:40.461Z,2.72
2024-03-25T09:52:00.843Z,2.27
2024-03-25T09:53:21.559Z,2.07
2024-03-25T09:54:41.766Z,2.03
2024-03-25T09:56:03.576Z,1.92
2024-03-25T09:57:24.121Z,1.60
2024-03-25T09:58:45.214Z,1.67
2024-03-25T10:00:07.611Z,1.60
2024-03-25T10:01:29.221Z,1.95
2024-03-25T10:02:52.011Z,2.02
2024-03-25T10:04:14.536Z,1.98
2024-03-25T10:05:37.284Z,2.15
2024-03-25T10:07:00.764Z,2.17
2024-03-25T10:08:26.581Z,2.07
2024-03-25T10:09:47.713Z,2.13
2024-03-25T10:11:10.891Z,2.33
2024-03-25T10:12:31.912Z,2.35
2024-03-25T10:13:56.403Z,2.82
2024-03-25T10:15:18.030Z,2.70
2024-03-25T10:16:41.250Z,2.85
2024-03-25T10:18:02.194Z,2.67
2024-03-25T10:19:24.678Z,2.70
2024-03-25T10:20:53.271Z,2.37
2024-03-25T10:22:15.296Z,2.45
2024-03-25T10:23:40.718Z,2.55
2024-03-25T10:25:01.912Z,2.60
2024-03-25T10:26:31.900Z,2.62
2024-03-25T10:27:59.292Z,2.77
2024-03-25T10:29:18.987Z,2.43
2024-03-25T10:30:41.123Z,2.52
2024-03-25T10:32:02.081Z,2.52
2024-03-25T10:33:25.243Z,2.38
2024-03-25T10:34:47.011Z,2.37
2024-03-25T10:36:15.259Z,2.38
2024-03-25T10:37:37.116Z,2.32
2024-03-25T10:39:04.287Z,2.62
2024-03-25T10:40:29.339Z,2.57
2024-03-25T10:41:51.535Z,2.37
2024-03-25T10:43:13.889Z,2.50
2024-03-25T10:44:34.356Z,2.57
2024-03-25T10:45:57.549Z,4.85
2024-03-25T10:47:25.873Z,5.68
2024-03-25T10:49:04.287Z,2.25
2024-03-25T10:50:32.363Z,2.95
2024-03-25T10:51:54.707Z,3.67
2024-03-25T10:53:21.141Z,2.38
2024-03-25T10:54:44.248Z,2.37
2024-03-25T10:56:05.648Z,1.82
2024-03-25T10:57:29.250Z,1.97
2024-03-25T10:58:51.344Z,2.28
2024-03-25T11:00:15.240Z,2.33
2024-03-25T11:01:38.679Z,1.97
2024-03-25T11:03:03.298Z,1.70
2024-03-25T11:04:25.614Z,1.65
2024-03-25T11:05:46.860Z,1.72
2024-03-25T11:07:15.145Z,1.48
2024-03-25T11:08:36.506Z,1.83
2024-03-25T11:10:07.507Z,1.75
2024-03-25T11:11:35.388Z,1.35
2024-03-25T11:12:57.161Z,1.58
2024-03-25T11:14:19.021Z,1.58
2024-03-25T11:15:47.157Z,1.73
2024-03-25T11:17:16.673Z,1.77
2024-03-25T11:18:39.390Z,1.52
2024-03-25T11:20:18.269Z,1.58
2024-03-25T11:21:40.048Z,1.55
2024-03-25T11:23:10.165Z,1.57
2024-03-25T11:24:40.100Z,1.37
2024-03-25T11:26:02.997Z,1.40
2024-03-25T11:27:40.265Z,1.63
2024-03-25T11:29:01.420Z,1.57
2024-03-25T11:30:26.704Z,1.50
2024-03-25T11:31:50.451Z,1.47
2024-03-25T11:33:12.263Z,1.50
2024-03-25T11:34:33.993Z,1.48
2024-03-25T11:35:55.660Z,1.58
2024-03-25T11:37:16.748Z,1.35
2024-03-25T11:38:43.456Z,1.47
2024-03-25T11:40:07.092Z,1.52
2024-03-25T11:41:30.358Z,1.93
2024-03-25T11:42:52.189Z,1.62
2024-03-25T11:44:12.946Z,1.63
2024-03-25T11:45:34.778Z,1.60
2024-03-25T11:46:57.135Z,1.58
2024-03-25T11:48:17.757Z,1.48
2024-03-25T11:49:40.675Z,1.62
2024-03-25T11:51:05.648Z,1.82
2024-03-25T11:52:32.773Z,1.97
2024-03-25T11:53:54.890Z,1.72
2024-03-25T11:55:21.034Z,1.77
2024-03-25T11:56:44.786Z,1.73
2024-03-25T11:58:06.491Z,1.92
2024-03-25T11:59:28.211Z,2.23
2024-03-25T12:00:51.959Z,2.12
2024-03-25T12:02:14.158Z,1.95
2024-03-25T12:03:42.671Z,1.83
2024-03-25T12:05:04.592Z,2.05
2024-03-25T12:06:24.737Z,2.70
2024-03-25T12:07:45.175Z,2.72
2024-03-25T12:09:24.169Z,2.70
2024-03-25T12:11:04.115Z,2.28
2024-03-25T12:12:25.855Z,3.28
2024-03-25T12:13:47.628Z,2.82
2024-03-25T12:15:08.697Z,2.08
2024-03-25T12:16:32.128Z,1.87
2024-03-25T12:17:54.041Z,1.57
2024-03-25T12:19:16.186Z,1.83
2024-03-25T12:20:38.317Z,1.30
2024-03-25T12:22:04.408Z,1.70
2024-03-25T12:23:31.295Z,1.62
2024-03-25T12:24:53.164Z,1.65
2024-03-25T12:26:15.079Z,1.43
2024-03-25T12:27:37.998Z,1.63
2024-03-25T12:29:00.354Z,1.35
2024-03-25T12:30:20.756Z,1.53
2024-03-25T12:31:41.721Z,1.43
2024-03-25T12:33:02.817Z,1.67
2024-03-25T12:34:25.982Z,1.72
2024-03-25T12:35:51.751Z,1.88
2024-03-25T12:37:16.976Z,1.70
2024-03-25T12:38:36.678Z,2.00
2024-03-25T12:40:00.295Z,2.07
2024-03-25T12:41:23.343Z,1.83
2024-03-25T12:42:44.283Z,1.53
2024-03-25T12:44:05.260Z,1.72
2024-03-25T12:45:25.943Z,1.90
2024-03-25T12:46:46.145Z,2.42
2024-03-25T12:48:08.243Z,2.25
2024-03-25T12:49:27.961Z,7.78
2024-03-25T12:50:48.938Z,7.30
2024-03-25T12:52:09.409Z,3.12
2024-03-25T12:53:31.136Z,3.18
2024-03-25T12:54:52.517Z,2.08
2024-03-25T12:56:13.426Z,4.20
2024-03-25T12:57:35.440Z,5.53
2024-03-25T12:58:56.351Z,5.80
2024-03-25T13:00:18.160Z,3.95
2024-03-25T13:01:39.037Z,1.87
2024-03-25T13:03:00.380Z,4.27
2024-03-25T13:04:22.985Z,3.50
2024-03-25T13:05:47.211Z,2.18
2024-03-25T13:07:09.847Z,1.87
2024-03-25T13:08:30.973Z,1.75
2024-03-25T13:09:52.519Z,1.50
2024-03-25T13:11:18.150Z,1.63
2024-03-25T13:12:40.031Z,1.90
2024-03-25T13:14:01.100Z,1.98
2024-03-25T13:15:22.596Z,1.58
2024-03-25T13:16:45.411Z,1.68
2024-03-25T13:18:07.260Z,1.73
2024-03-25T13:19:29.453Z,1.92
2024-03-25T13:20:51.266Z,1.88
2024-03-25T13:22:17.232Z,1.48
2024-03-25T13:23:39.794Z,1.62
2024-03-25T13:25:01.427Z,1.68
2024-03-25T13:26:21.456Z,1.95
2024-03-25T13:27:42.423Z,1.75
2024-03-25T13:29:03.135Z,1.68
2024-03-25T13:30:25.107Z,1.38
2024-03-25T13:31:47.355Z,1.48
2024-03-25T13:33:10.002Z,1.52
2024-03-25T13:34:32.145Z,1.47
2024-03-25T13:35:53.877Z,1.33
2024-03-25T13:37:15.413Z,1.37
2024-03-25T13:38:37.128Z,1.38
2024-03-25T13:39:58.851Z,1.32
2024-03-25T13:41:22.885Z,1.35
2024-03-25T13:42:47.427Z,1.35
2024-03-25T13:44:08.663Z,1.12
2024-03-25T13:45:29.556Z,1.28
2024-03-25T13:46:51.975Z,1.38
2024-03-25T13:48:13.576Z,1.30
2024-03-25T13:49:37.933Z,1.17
2024-03-25T13:51:15.842Z,1.53
2024-03-25T13:52:39.612Z,1.65
2024-03-25T13:54:00.476Z,1.28
2024-03-25T13:55:22.414Z,1.55
2024-03-25T13:56:44.342Z,1.43
2024-03-25T13:58:07.236Z,1.18
2024-03-25T13:59:27.700Z,1.05
2024-03-25T14:00:49.231Z,1.37
2024-03-25T14:02:10.767Z,1.15
2024-03-25T14:03:31.052Z,1.47
2024-03-25T14:04:52.186Z,1.37
2024-03-25T14:06:13.062Z,1.15
2024-03-25T14:07:33.298Z,1.30
2024-03-25T14:08:55.685Z,1.08
2024-03-25T14:10:17.718Z,1.22
2024-03-25T14:11:40.214Z,1.30
2024-03-25T14:13:01.322Z,1.43
2024-03-25T14:14:22.564Z,1.35
2024-03-25T14:15:44.099Z,1.47
2024-03-25T14:17:06.070Z,1.68
2024-03-25T14:18:27.647Z,1.72
2024-03-25T14:19:53.987Z,1.72
2024-03-25T14:21:15.535Z,1.80
2024-03-25T14:22:37.690Z,1.65
2024-03-25T14:23:59.076Z,2.03
2024-03-25T14:25:20.280Z,2.17
2024-03-25T14:26:42.754Z,2.08
2024-03-25T14:28:05.793Z,2.33
2024-03-25T14:29:26.626Z,1.50
2024-03-25T14:30:49.535Z,1.60
2024-03-25T14:32:10.580Z,1.73
2024-03-25T14:33:33.680Z,1.67
2024-03-25T14:34:56.053Z,1.90
2024-03-25T14:36:18.552Z,1.80
2024-03-25T14:37:39.128Z,1.48
2024-03-25T14:38:58.738Z,1.88
2024-03-25T14:40:20.085Z,3.18
2024-03-25T14:41:41.045Z,1.93
2024-03-25T14:43:02.474Z,19.65
2024-03-25T14:44:24.057Z,101.23
2024-03-25T14:45:44.617Z,89.53
2024-03-25T14:47:06.490Z,41.80
2024-03-25T14:48:27.441Z,10.90
2024-03-25T14:49:52.373Z,7.55
2024-03-25T14:51:13.395Z,5.15
2024-03-25T14:52:35.402Z,7.73
2024-03-25T14:53:57.488Z,7.17
2024-03-25T14:55:17.614Z,5.85
2024-03-25T14:56:38.266Z,4.63
2024-03-25T14:57:59.511Z,5.40
2024-03-25T14:59:27.784Z,3.80
2024-03-25T15:00:49.370Z,4.17
2024-03-25T15:02:13.384Z,3.47
2024-03-25T15:03:47.150Z,3.30
2024-03-25T15:05:09.448Z,3.95
2024-03-25T15:06:30.059Z,8.27
2024-03-25T15:07:50.489Z,12.57
2024-03-25T15:09:15.005Z,22.63
2024-03-25T15:10:36.397Z,22.83
2024-03-25T15:11:58.373Z,16.53
2024-03-25T15:13:19.594Z,15.08
2024-03-25T15:14:40.368Z,14.12
2024-03-25T15:16:06.469Z,8.83
2024-03-25T15:17:29.754Z,5.23
2024-03-25T15:18:55.628Z,12.32
2024-03-25T15:20:25.333Z,11.17
2024-03-25T15:21:48.144Z,6.63
2024-03-25T15:23:16.727Z,4.38
2024-03-25T15:24:38.609Z,2.22
2024-03-25T15:26:02.469Z,1.77
2024-03-25T15:27:26.030Z,2.97
2024-03-25T15:28:50.105Z,4.92
2024-03-25T15:30:10.527Z,3.30
2024-03-25T15:31:30.766Z,1.77
2024-03-25T15:32:50.581Z,3.02
2024-03-25T15:34:11.572Z,1.70
2024-03-25T15:35:34.550Z,1.18
2024-03-25T15:36:56.646Z,1.25
2024-03-25T15:40:24.446Z,1.30
2024-03-25T15:41:55.621Z,1.28
2024-03-25T15:43:19.338Z,0.95
2024-03-25T15:44:40.586Z,0.97
2024-03-25T15:46:08.317Z,0.73
2024-03-25T15:47:32.943Z,0.90
2024-03-25T15:48:54.946Z,0.70
2024-03-25T15:50:17.661Z,0.88
2024-03-25T15:51:42.958Z,0.90
2024-03-25T15:53:04.606Z,1.15
2024-03-25T15:54:30.146Z,1.08
2024-03-25T15:55:53.641Z,0.85
2024-03-25T15:57:15.436Z,1.05
2024-03-25T15:59:02.391Z,1.03
2024-03-25T16:00:22.276Z,3.77
2024-03-25T16:01:43.015Z,173.22
2024-03-25T16:03:04.317Z,14.00
2024-03-25T16:04:53.038Z,8.60
2024-03-25T16:06:23.446Z,4.12
2024-03-25T16:08:43.575Z,5.53
2024-03-25T16:10:05.860Z,4.88
2024-03-25T16:11:27.459Z,7.02
2024-03-25T16:12:49.643Z,5.58
2024-03-25T16:14:11.880Z,3.90
2024-03-25T16:15:37.313Z,3.20
2024-03-25T16:16:58.243Z,3.02
2024-03-25T16:18:22.708Z,3.07
2024-03-25T16:19:44.757Z,2.33
2024-03-25T16:21:18.716Z,2.90
2024-03-25T16:22:39.316Z,3.13
2024-03-25T16:24:00.776Z,6.65
2024-03-25T16:25:44.279Z,14.12
2024-03-25T16:27:05.552Z,8.37
2024-03-25T16:28:25.746Z,53.13
2024-03-25T16:29:46.702Z,6.58
2024-03-25T16:31:07.594Z,12.30
2024-03-25T16:32:37.743Z,34.68
2024-03-25T16:33:59.693Z,2.47
2024-03-25T16:35:23.160Z,4.63
2024-03-25T16:36:44.253Z,5.17
2024-03-25T16:38:05.529Z,6.93
2024-03-25T16:39:28.259Z,3.70
2024-03-25T16:40:50.402Z,4.55
2024-03-25T16:42:15.714Z,5.97
2024-03-25T16:43:37.548Z,13.18
2024-03-25T16:45:00.587Z,27.07
2024-03-25T16:46:21.035Z,41.85
2024-03-25T16:47:44.912Z,27.20
2024-03-25T16:49:06.447Z,7.43
2024-03-25T16:50:28.192Z,5.98
2024-03-25T16:52:44.689Z,4.15
2024-03-25T16:54:06.298Z,8.20
2024-03-25T16:55:53.800Z,2.23
2024-03-25T16:57:18.398Z,3.30
2024-03-25T16:58:46.010Z,2.33
2024-03-25T17:00:47.321Z,3.10
2024-03-25T17:02:47.103Z,2.90
2024-03-25T17:04:29.785Z,2.28
2024-03-25T17:06:00.772Z,2.35
2024-03-25T17:07:50.435Z,2.53
2024-03-25T17:09:18.583Z,4.70
2024-03-25T17:12:31.238Z,7.67
2024-03-25T17:13:52.464Z,9.82
2024-03-25T17:15:17.477Z,3.35
2024-03-25T17:16:39.677Z,2.97
2024-03-25T17:18:14.748Z,16.37
2024-03-25T17:20:03.855Z,33.20
2024-03-25T17:21:24.475Z,20.57
2024-03-25T17:22:50.322Z,16.27
2024-03-25T17:24:20.384Z,10.25
2024-03-25T17:25:43.379Z,9.47
2024-03-25T17:27:13.618Z,8.98
2024-03-25T17:28:36.305Z,4.25
2024-03-25T17:29:59.748Z,5.13
2024-03-25T17:31:29.668Z,5.78
2024-03-25T17:32:53.481Z,7.62
2024-03-25T17:34:19.985Z,6.00
2024-03-25T17:35:55.835Z,7.60
2024-03-25T17:37:20.375Z,4.77
2024-03-25T17:39:04.599Z,3.18
2024-03-25T17:40:28.035Z,2.88
2024-03-25T17:41:54.133Z,2.48
2024-03-25T17:43:20.522Z,2.50
2024-03-25T17:45:01.690Z,11.52
2024-03-25T17:46:23.591Z,11.20
2024-03-25T17:47:50.773Z,4.83
2024-03-25T17:49:11.134Z,6.12
2024-03-25T17:50:32.190Z,6.20
2024-03-25T17:51:53.336Z,4.47
2024-03-25T17:53:13.849Z,12.22
2024-03-25T17:54:40.474Z,5.30
2024-03-25T17:56:01.970Z,3.92
2024-03-25T17:57:43.854Z,6.65
2024-03-25T17:59:08.968Z,3.58
2024-03-25T18:00:45.164Z,6.68
2024-03-25T18:02:09.209Z,2.70
2024-03-25T18:03:33.289Z,2.88
2024-03-25T18:05:08.794Z,5.40
2024-03-25T18:06:29.800Z,4.40
2024-03-25T18:08:01.736Z,2.53
2024-03-25T18:09:30.986Z,2.23
2024-03-25T18:11:33.253Z,6.20
2024-03-25T18:12:55.575Z,3.62
2024-03-25T18:14:20.132Z,2.33
2024-03-25T18:15:50.419Z,2.28
2024-03-25T18:17:15.768Z,2.43
2024-03-25T18:18:44.124Z,8.22
2024-03-25T18:20:06.099Z,2.33
2024-03-25T18:21:30.126Z,3.27
2024-03-25T18:22:52.018Z,5.75
2024-03-25T18:24:15.722Z,6.40
2024-03-25T18:25:41.449Z,4.52
2024-03-25T18:27:33.888Z,2.98
2024-03-25T18:28:58.318Z,3.07
2024-03-25T18:30:26.938Z,2.52
2024-03-25T18:31:51.686Z,1.93
2024-03-25T18:33:14.943Z,2.17
2024-03-25T18:34:37.042Z,2.20
2024-03-25T18:36:03.486Z,2.35
2024-03-25T18:37:57.031Z,2.87
2024-03-25T18:39:24.569Z,2.55
2024-03-25T18:41:12.296Z,2.48
2024-03-25T18:42:38.509Z,6.88
2024-03-25T18:44:00.153Z,10.13
2024-03-25T18:45:21.089Z,94.57
2024-03-25T18:46:43.236Z,88.78
2024-03-25T18:48:10.602Z,82.10
2024-03-25T18:49:32.162Z,60.80
2024-03-25T18:51:11.957Z,7.22
2024-03-25T18:52:53.974Z,17.02
2024-03-25T18:54:19.135Z,145.90
2024-03-25T18:56:29.619Z,251.93
2024-03-25T18:57:58.054Z,241.23
2024-03-25T18:59:29.229Z,325.85
2024-03-25T19:00:50.021Z,113.47
2024-03-25T19:02:14.573Z,338.90
2024-03-25T19:03:35.968Z,445.27
2024-03-25T19:04:59.711Z,148.98
2024-03-25T19:06:20.343Z,181.55
2024-03-25T19:08:02.011Z,99.98
2024-03-25T19:10:05.820Z,123.32
2024-03-25T19:11:26.581Z,79.22
2024-03-25T19:13:03.254Z,64.58